Time;durP1;ratioP1;P1;durP2;ratioP2;P2;SDS_P1;SDS_P2;PMS_P1;PMS_P2;Temp;Humidity;BMP_temperature;BMP_pressure;BME280_temperature;BME280_humidity;BME280_pressure;Samples;Min_cycle;Max_cycle;Signal;HPM_P1;HPM_P2
2022/04/16 00:01:21;;;;;;;14.50;10.30;;;;;;;11.21;62.45;100920.58;107348;1249;72263;-73
2022/04/16 00:03:50;;;;;;;14.40;10.50;;;;;;;11.22;62.63;100926.13;107324;1250;69830;-69
2022/04/16 00:06:19;;;;;;;15.40;10.20;;;;;;;11.21;62.87;100923.73;107403;1249;71449;-67
2022/04/16 00:08:48;;;;;;;15.20;10.70;;;;;;;11.19;63.24;100920.21;107366;1250;59823;-71
2022/04/16 00:11:18;;;;;;;14.10;10.70;;;;;;;11.17;62.44;100925.61;107404;1250;59556;-71
2022/04/16 00:13:50;;;;;;;14.10;10.10;;;;;;;11.15;63.13;100927.81;107378;1250;73588;-71
2022/04/16 00:16:19;;;;;;;11.60;8.20;;;;;;;11.15;63.40;100933.90;107355;1250;70269;-69
2022/04/16 00:18:49;;;;;;;14.70;11.10;;;;;;;11.15;64.06;100937.23;107279;1251;69054;-71
2022/04/16 00:21:18;;;;;;;12.00;8.90;;;;;;;11.17;64.47;100935.57;107322;1250;73966;-72
2022/04/16 00:23:46;;;;;;;13.40;8.60;;;;;;;11.15;64.70;100941.58;107283;1248;61703;-71
2022/04/16 00:26:15;;;;;;;17.50;10.60;;;;;;;11.13;64.62;100947.30;107254;1250;60128;-69
2022/04/16 00:28:44;;;;;;;16.30;11.40;;;;;;;11.09;64.77;100950.55;107293;1250;72759;-70
2022/04/16 00:31:14;;;;;;;14.00;10.70;;;;;;;10.98;65.49;100941.92;107168;1250;69391;-72
2022/04/16 00:33:43;;;;;;;15.20;9.00;;;;;;;11.04;64.42;100945.04;107267;1249;68775;-71
2022/04/16 00:36:14;;;;;;;18.00;9.70;;;;;;;10.98;64.36;100944.90;107259;1250;73426;-71
2022/04/16 00:38:43;;;;;;;14.90;11.00;;;;;;;10.90;64.44;100948.44;107185;1251;61532;-72
2022/04/16 00:41:13;;;;;;;12.70;9.00;;;;;;;10.78;64.49;100941.64;107228;1250;59284;-69
2022/04/16 00:43:42;;;;;;;14.90;11.80;;;;;;;10.71;66.12;100947.13;107237;1250;73754;-71
2022/04/16 00:46:11;;;;;;;13.70;10.10;;;;;;;10.67;65.74;100946.39;107238;1249;70704;-72
2022/04/16 00:48:40;;;;;;;17.80;10.30;;;;;;;10.65;65.89;100948.25;107198;1250;69130;-72
2022/04/16 00:51:09;;;;;;;12.60;9.50;;;;;;;10.63;66.38;100945.25;107117;1250;74800;-70
2022/04/16 00:53:38;;;;;;;13.60;9.90;;;;;;;10.60;66.90;100944.05;107181;1251;59201;-72
2022/04/16 00:56:10;;;;;;;13.70;9.10;;;;;;;10.57;67.40;100938.87;107234;1251;59102;-68
2022/04/16 00:58:41;;;;;;;15.60;9.40;;;;;;;10.56;67.26;100940.33;107375;1250;72175;-69
2022/04/16 01:01:10;;;;;;;14.60;9.60;;;;;;;10.58;67.28;100938.11;107404;1250;72896;-69
2022/04/16 01:03:43;;;;;;;13.30;9.00;;;;;;;10.56;67.64;100939.98;107289;1250;71007;-69
2022/04/16 01:06:15;;;;;;;9.30;7.00;;;;;;;10.56;67.18;100938.94;109542;1249;73595;-69
2022/04/16 01:08:45;;;;;;;12.90;9.10;;;;;;;10.55;67.14;100949.61;107389;1250;61809;-68
2022/04/16 01:11:15;;;;;;;11.90;9.10;;;;;;;10.54;66.87;100946.77;107276;1250;61454;-67
2022/04/16 01:13:47;;;;;;;11.20;8.50;;;;;;;10.51;67.40;100945.38;107346;1250;74872;-69
2022/04/16 01:16:15;;;;;;;12.40;7.70;;;;;;;10.50;67.44;100947.40;107314;1249;72421;-72
2022/04/16 01:18:49;;;;;;;11.90;8.80;;;;;;;10.50;67.35;100947.57;107414;1249;71572;-71
2022/04/16 01:21:18;;;;;;;11.40;8.60;;;;;;;10.47;67.40;100950.84;107421;1249;74641;-70
2022/04/16 01:23:48;;;;;;;8.60;6.40;;;;;;;10.43;67.66;100949.55;107338;1250;60494;-73
2022/04/16 01:26:18;;;;;;;11.70;8.70;;;;;;;10.43;67.43;100945.79;107477;1250;59781;-76
2022/04/16 01:28:47;;;;;;;11.40;7.80;;;;;;;10.42;67.78;100942.02;107334;1250;73731;-71
2022/04/16 01:31:17;;;;;;;10.50;7.40;;;;;;;10.39;68.01;100945.65;107457;1250;72933;-73
2022/04/16 01:33:45;;;;;;;11.40;8.60;;;;;;;10.35;67.48;100944.52;107380;1250;71404;-74
2022/04/16 01:36:15;;;;;;;13.00;8.90;;;;;;;10.28;67.71;100943.45;107381;1250;72144;-74
2022/04/16 01:38:44;;;;;;;11.20;8.40;;;;;;;10.14;67.70;100932.67;107289;1250;61177;-74
2022/04/16 01:41:12;;;;;;;13.90;8.70;;;;;;;9.99;67.35;100936.66;107199;1250;60891;-75
2022/04/16 01:43:43;;;;;;;13.10;8.70;;;;;;;9.78;68.72;100935.25;107178;1249;74712;-74
2022/04/16 01:46:12;;;;;;;14.10;8.90;;;;;;;9.70;68.03;100930.24;107171;1250;72759;-72
2022/04/16 01:48:41;;;;;;;11.50;8.00;;;;;;;9.63;68.64;100932.45;107302;1250;70911;-71
2022/04/16 01:51:10;;;;;;;15.60;9.10;;;;;;;9.58;68.87;100936.03;107189;1250;73805;-71
2022/04/16 01:53:39;;;;;;;12.60;8.70;;;;;;;9.43;68.78;100933.02;107137;1250;60256;-71
2022/04/16 01:56:08;;;;;;;14.90;8.80;;;;;;;9.23;69.17;100935.15;107153;1250;59421;-70
2022/04/16 01:58:39;;;;;;;13.30;8.30;;;;;;;9.07;70.27;100934.04;107103;1250;72046;-71
2022/04/16 02:01:08;;;;;;;13.50;9.30;;;;;;;9.00;69.91;100933.09;107093;1249;71268;-72
2022/04/16 02:03:37;;;;;;;12.60;8.50;;;;;;;8.91;69.77;100922.77;107058;1249;68353;-71
2022/04/16 02:06:06;;;;;;;11.90;8.90;;;;;;;8.81;70.46;100924.38;107125;1250;71492;-72
2022/04/16 02:08:35;;;;;;;12.20;7.50;;;;;;;8.70;70.66;100929.71;107017;1250;62906;-71
2022/04/16 02:11:04;;;;;;;10.50;7.40;;;;;;;8.63;71.10;100933.13;107061;1250;60839;-70
2022/04/16 02:13:33;;;;;;;9.60;6.90;;;;;;;8.58;71.95;100935.90;107099;1250;74539;-69
2022/04/16 02:16:02;;;;;;;11.90;6.80;;;;;;;8.47;72.53;100933.58;107134;1250;71479;-66
2022/04/16 02:18:31;;;;;;;11.10;7.00;;;;;;;8.37;73.23;100936.76;107058;1250;69314;-69
2022/04/16 02:21:00;;;;;;;10.30;6.90;;;;;;;8.22;73.55;100927.55;107095;1250;73908;-70
2022/04/16 02:23:29;;;;;;;10.40;6.60;;;;;;;8.24;73.99;100932.98;107020;1249;62631;-70
2022/04/16 02:25:58;;;;;;;12.00;6.00;;;;;;;8.23;74.00;100932.37;107022;1250;60803;-71
2022/04/16 02:28:26;;;;;;;14.00;7.60;;;;;;;8.17;74.19;100932.34;107003;1250;74591;-71
2022/04/16 02:30:55;;;;;;;11.40;7.40;;;;;;;8.17;74.41;100931.17;106972;1251;70899;-72
2022/04/16 02:33:24;;;;;;;13.10;8.20;;;;;;;8.15;74.09;100933.86;107053;1249;69380;-73
2022/04/16 02:35:54;;;;;;;11.70;7.90;;;;;;;8.14;74.16;100931.83;107108;1250;73285;-74
2022/04/16 02:38:22;;;;;;;10.80;7.50;;;;;;;8.14;74.31;100929.45;107086;1250;60514;-71
2022/04/16 02:40:51;;;;;;;11.80;8.40;;;;;;;8.12;74.22;100927.46;106950;1251;58815;-72
2022/04/16 02:43:20;;;;;;;18.10;8.00;;;;;;;8.11;74.03;100920.22;107137;1250;72657;-72
2022/04/16 02:48:36;;;;;;;9.90;6.70;;;;;;;8.10;74.47;100916.48;107340;1249;68286;-72
2022/04/16 02:51:05;;;;;;;9.60;6.50;;;;;;;8.07;74.78;100913.36;107198;1250;71715;-72
2022/04/16 02:53:35;;;;;;;10.90;7.10;;;;;;;8.04;75.09;100915.98;107217;1249;62735;-72
2022/04/16 02:56:04;;;;;;;10.70;6.60;;;;;;;7.98;74.69;100920.63;107326;1250;60922;-71
2022/04/16 02:58:33;;;;;;;11.00;7.30;;;;;;;7.98;75.06;100922.39;107386;1249;73955;-71
2022/04/16 03:01:01;;;;;;;14.80;7.50;;;;;;;7.97;75.25;100923.12;107296;1250;72023;-71
2022/04/16 03:03:30;;;;;;;11.40;7.50;;;;;;;7.96;75.28;100927.02;107331;1250;69440;-72
2022/04/16 03:05:59;;;;;;;10.40;7.20;;;;;;;7.95;75.52;100930.70;107407;1246;73422;-72
2022/04/16 03:08:28;;;;;;;10.10;6.70;;;;;;;7.93;75.74;100936.86;107364;1250;61626;-73
2022/04/16 03:10:57;;;;;;;9.10;5.80;;;;;;;7.91;76.01;100934.73;107170;1250;59696;-72
2022/04/16 03:13:27;;;;;;;10.60;7.40;;;;;;;7.89;76.00;100938.17;107469;1248;71174;-73
2022/04/16 03:18:45;;;;;;;17.00;9.30;;;;;;;7.84;75.66;100937.92;107677;1249;68658;-72
2022/04/16 03:21:14;;;;;;;13.50;9.10;;;;;;;7.87;76.49;100936.70;107572;1248;72007;-71
2022/04/16 03:23:43;;;;;;;13.40;9.00;;;;;;;7.91;75.40;100934.40;107490;1250;63224;-70
2022/04/16 03:26:12;;;;;;;14.80;8.50;;;;;;;7.99;75.59;100935.17;107457;1250;60251;-69
2022/04/16 03:28:41;;;;;;;17.00;9.00;;;;;;;8.06;75.12;100928.52;107377;1249;71405;-70
2022/04/16 03:31:10;;;;;;;16.70;8.90;;;;;;;8.11;74.85;100930.83;107256;1250;69927;-69
2022/04/16 03:33:39;;;;;;;16.40;9.50;;;;;;;8.16;75.10;100927.44;107273;1250;69148;-74
2022/04/16 03:36:08;;;;;;;13.90;8.40;;;;;;;8.21;75.40;100925.37;107282;1249;71206;-73
2022/04/16 03:38:36;;;;;;;13.30;8.70;;;;;;;8.24;73.92;100929.20;107248;1250;61062;-71
2022/04/16 03:41:06;;;;;;;11.70;7.70;;;;;;;8.24;74.37;100929.70;107433;1250;59757;-73
2022/04/16 03:43:35;;;;;;;13.40;8.30;;;;;;;8.24;74.92;100931.25;107681;1250;71691;-73
2022/04/16 03:46:04;;;;;;;17.20;9.20;;;;;;;8.20;75.00;100929.23;107553;1250;70599;-73
2022/04/16 03:48:33;;;;;;;15.10;8.30;;;;;;;8.16;75.06;100931.70;107432;1249;69748;-73
2022/04/16 03:51:03;;;;;;;17.40;9.70;;;;;;;8.14;75.57;100929.27;107521;1250;74226;-71
2022/04/16 03:53:34;;;;;;;15.50;7.90;;;;;;;8.13;75.89;100921.16;107122;1250;60557;-74
2022/04/16 04:01:40;;;;;;;9.80;6.90;;;;;;;8.14;76.33;100923.02;107481;1247;72646;-73
2022/04/16 04:04:10;;;;;;;16.50;8.70;;;;;;;8.11;76.58;100920.41;107725;1247;71002;-70
2022/04/16 04:06:40;;;;;;;15.50;9.20;;;;;;;8.08;76.33;100921.98;107691;1247;74529;-72
2022/04/16 04:09:09;;;;;;;15.60;10.30;;;;;;;8.06;76.18;100920.89;107668;1247;61104;-72
2022/04/16 04:11:38;;;;;;;15.50;10.00;;;;;;;8.03;76.19;100921.89;107678;1247;59785;-71
2022/04/16 04:14:07;;;;;;;17.20;10.20;;;;;;;8.09;75.75;100924.54;107555;1247;72273;-73
2022/04/16 04:16:36;;;;;;;15.30;8.40;;;;;;;8.16;75.63;100924.79;107602;1247;70043;-73
2022/04/16 04:19:05;;;;;;;14.30;8.60;;;;;;;8.28;75.65;100930.89;107360;1248;68185;-72
2022/04/16 04:21:33;;;;;;;11.50;7.20;;;;;;;8.31;75.53;100934.34;107263;1250;74253;-72
2022/04/16 04:24:03;;;;;;;16.40;9.80;;;;;;;8.33;75.63;100934.03;107190;1250;63797;-72
2022/04/16 04:26:32;;;;;;;16.50;10.40;;;;;;;8.37;75.54;100935.21;107465;1247;62069;-74
2022/04/16 04:29:01;;;;;;;18.70;9.90;;;;;;;8.48;75.28;100935.39;107282;1247;75198;-72
2022/04/16 04:31:29;;;;;;;17.70;10.80;;;;;;;8.61;74.97;100928.73;107147;1248;73067;-72
2022/04/16 04:33:58;;;;;;;19.90;10.40;;;;;;;8.73;75.17;100926.64;107186;1250;70522;-71
2022/04/16 04:36:27;;;;;;;15.10;9.40;;;;;;;8.89;74.50;100925.80;107139;1250;72870;-71
2022/04/16 04:38:56;;;;;;;17.20;10.50;;;;;;;9.04;74.49;100926.08;107287;1248;61872;-71
2022/04/16 04:41:25;;;;;;;15.30;10.30;;;;;;;9.19;74.11;100925.48;107275;1248;59199;-72
2022/04/16 04:43:54;;;;;;;16.90;10.80;;;;;;;9.40;73.56;100929.21;107271;1247;72192;-73
2022/04/16 04:46:23;;;;;;;18.20;10.70;;;;;;;9.59;72.95;100931.27;107276;1247;71461;-72
2022/04/16 04:48:52;;;;;;;22.80;11.30;;;;;;;9.76;72.82;100930.52;107206;1247;70111;-72
2022/04/16 04:51:20;;;;;;;18.10;10.60;;;;;;;9.93;72.55;100933.91;107162;1248;73965;-74
2022/04/16 04:53:49;;;;;;;16.00;10.30;;;;;;;10.14;71.82;100929.75;107119;1249;61958;-73
2022/04/16 04:56:18;;;;;;;12.80;8.00;;;;;;;10.38;71.93;100931.09;107124;1248;59667;-73
2022/04/16 04:58:47;;;;;;;16.00;10.40;;;;;;;10.65;71.16;100924.71;107136;1250;72030;-74
2022/04/16 05:01:17;;;;;;;17.90;9.90;;;;;;;10.83;70.45;100923.80;107156;1248;71669;-77
2022/04/16 05:03:47;;;;;;;15.90;10.20;;;;;;;10.98;69.83;100921.23;107186;1248;70288;-74
2022/04/16 05:06:16;;;;;;;19.60;11.50;;;;;;;11.06;69.54;100920.66;107208;1250;74405;-75
2022/04/16 05:08:44;;;;;;;18.00;11.30;;;;;;;11.13;69.56;100921.88;107261;1249;61035;-75
2022/04/16 05:11:13;;;;;;;16.90;11.30;;;;;;;11.23;69.53;100924.15;107159;1249;59190;-74
2022/04/16 05:13:42;;;;;;;15.10;9.20;;;;;;;11.42;69.12;100927.14;107253;1250;72137;-71
2022/04/16 05:16:12;;;;;;;16.50;11.10;;;;;;;11.65;68.84;100928.89;107159;1250;69698;-75
2022/04/16 05:18:42;;;;;;;16.90;10.50;;;;;;;11.81;68.57;100931.25;107214;1248;69754;-73
2022/04/16 05:21:10;;;;;;;19.10;10.40;;;;;;;12.00;68.20;100937.02;107004;1250;74737;-72
2022/04/16 05:23:40;;;;;;;14.70;11.00;;;;;;;12.13;68.17;100935.35;106928;1250;62444;-73
2022/04/16 05:26:10;;;;;;;16.00;10.40;;;;;;;12.29;67.56;100937.81;107229;1248;60848;-72
2022/04/16 05:28:41;;;;;;;18.30;11.30;;;;;;;12.45;66.96;100936.55;107596;1248;74141;-73
2022/04/16 05:31:10;;;;;;;16.00;10.80;;;;;;;12.58;66.35;100929.66;107615;1247;72258;-72
2022/04/16 05:36:27;;;;;;;17.00;11.20;;;;;;;12.65;65.90;100928.05;107265;1248;72504;-73
2022/04/16 05:38:55;;;;;;;15.50;11.00;;;;;;;12.69;65.59;100929.48;107278;1249;61267;-73
2022/04/16 05:41:24;;;;;;;17.40;11.10;;;;;;;12.65;65.74;100927.34;107207;1248;59763;-74
2022/04/16 05:43:53;;;;;;;17.40;11.20;;;;;;;12.70;65.49;100929.17;107214;1248;71568;-72
2022/04/16 05:46:22;;;;;;;15.60;11.00;;;;;;;12.68;65.50;100925.52;107122;1249;69813;-75
2022/04/16 05:48:52;;;;;;;18.30;11.80;;;;;;;12.56;65.67;100927.53;107190;1248;68415;-72
2022/04/16 05:51:22;;;;;;;16.80;11.50;;;;;;;12.58;65.39;100929.66;107043;1248;73070;-73
2022/04/16 05:53:52;;;;;;;14.40;10.80;;;;;;;12.60;65.40;100936.13;107121;1248;62416;-74
2022/04/16 05:56:22;;;;;;;16.60;11.10;;;;;;;12.60;65.31;100941.73;107187;1248;59174;-72
2022/04/16 05:58:51;;;;;;;18.60;11.30;;;;;;;12.66;65.13;100945.79;107206;1247;71695;-72
2022/04/16 06:01:22;;;;;;;16.20;11.20;;;;;;;12.63;65.18;100948.25;107252;1248;71166;-71
2022/04/16 06:03:51;;;;;;;16.50;11.40;;;;;;;12.61;65.17;100944.64;107158;1249;68043;-71
2022/04/16 06:06:20;;;;;;;13.90;9.70;;;;;;;12.55;65.60;100941.03;107044;1250;72305;-73
2022/04/16 06:08:49;;;;;;;17.60;12.00;;;;;;;12.57;65.27;100941.42;107228;1248;60604;-71
2022/04/16 06:11:20;;;;;;;17.40;12.70;;;;;;;12.54;65.38;100946.39;107194;1248;61322;-69
2022/04/16 06:13:49;;;;;;;19.60;12.10;;;;;;;12.52;65.62;100948.63;107223;1250;73479;-74
2022/04/16 06:16:18;;;;;;;17.70;12.30;;;;;;;12.56;65.39;100945.16;107355;1248;72771;-75
2022/04/16 06:18:46;;;;;;;25.10;12.40;;;;;;;12.63;65.09;100949.52;107280;1250;70279;-74
2022/04/16 06:21:15;;;;;;;18.60;10.80;;;;;;;12.69;65.45;100951.66;107191;1250;72808;-73
2022/04/16 06:23:44;;;;;;;20.30;11.90;;;;;;;12.78;65.47;100953.09;107256;1250;60575;-72
2022/04/16 06:26:13;;;;;;;19.00;11.80;;;;;;;12.78;65.48;100957.44;107311;1247;60355;-73
2022/04/16 06:28:41;;;;;;;19.60;12.20;;;;;;;12.80;65.55;100959.05;107282;1248;74728;-75
2022/04/16 06:31:10;;;;;;;43.50;15.00;;;;;;;12.88;65.15;100951.25;107500;1250;74098;-74
2022/04/16 06:33:44;;;;;;;20.30;13.80;;;;;;;12.88;65.44;100956.64;107805;1247;67921;-73
2022/04/16 06:36:12;;;;;;;23.70;14.40;;;;;;;12.96;65.74;100961.40;107664;1247;73851;-71
2022/04/16 06:38:44;;;;;;;50.50;16.00;;;;;;;13.05;65.78;100956.39;107450;1250;59346;-75
2022/04/16 06:41:13;;;;;;;23.50;13.70;;;;;;;13.13;65.69;100961.36;107349;1250;59098;-74
2022/04/16 06:43:42;;;;;;;29.10;14.20;;;;;;;13.27;65.13;100958.29;107538;1247;74047;-73
2022/04/16 06:46:12;;;;;;;18.60;14.30;;;;;;;13.34;64.96;100961.63;107439;1250;69621;-76
2022/04/16 06:48:41;;;;;;;18.00;11.50;;;;;;;13.32;64.93;100952.67;107616;1249;70623;-73
2022/04/16 06:51:10;;;;;;;16.90;11.30;;;;;;;13.45;64.13;100953.36;107345;1250;74580;-71
2022/04/16 06:53:39;;;;;;;32.00;13.40;;;;;;;13.47;63.78;100947.06;107207;1249;60749;-73
2022/04/16 06:56:09;;;;;;;21.00;10.50;;;;;;;13.58;63.21;100949.00;107259;1249;58920;-75
2022/04/16 06:58:38;;;;;;;16.00;10.10;;;;;;;13.67;62.39;100955.64;107394;1248;71136;-72
2022/04/16 07:01:07;;;;;;;17.20;10.80;;;;;;;13.79;61.54;100948.20;107351;1250;69948;-73
2022/04/16 07:03:36;;;;;;;20.00;10.90;;;;;;;13.84;61.42;100945.67;107387;1250;68204;-75
2022/04/16 07:06:05;;;;;;;13.00;9.30;;;;;;;13.94;61.07;100943.45;107267;1249;71062;-74
2022/04/16 07:08:34;;;;;;;13.80;9.70;;;;;;;14.12;60.79;100950.36;107325;1250;59090;-74
2022/04/16 07:11:03;;;;;;;16.00;10.50;;;;;;;14.25;60.28;100952.79;107453;1250;61099;-74
2022/04/16 07:13:33;;;;;;;16.40;10.30;;;;;;;14.44;59.93;100951.69;107124;1250;72879;-75
2022/04/16 07:16:03;;;;;;;14.90;10.40;;;;;;;14.51;59.52;100947.38;107512;1250;70756;-77
2022/04/16 07:18:32;;;;;;;46.10;12.10;;;;;;;14.64;59.63;100949.66;106758;1250;902961;-75
2022/04/16 07:21:02;;;;;;;16.90;10.30;;;;;;;14.80;59.06;100950.01;107389;1250;74317;-76
2022/04/16 07:23:32;;;;;;;15.80;10.30;;;;;;;14.94;58.74;100952.14;107370;1250;61717;-72
2022/04/16 07:26:01;;;;;;;15.90;10.50;;;;;;;15.00;58.19;100951.46;107318;1250;59178;-75
2022/04/16 07:28:30;;;;;;;41.40;13.20;;;;;;;14.96;57.74;100955.14;107448;1249;71721;-75
2022/04/16 07:30:59;;;;;;;14.40;9.70;;;;;;;14.94;57.43;100956.16;107443;1250;72315;-71
2022/04/16 07:33:29;;;;;;;13.70;8.80;;;;;;;14.93;57.57;100964.00;107605;1250;71572;-75
2022/04/16 07:35:58;;;;;;;24.00;10.50;;;;;;;14.91;57.55;100969.27;107523;1249;71551;-76
2022/04/16 07:38:27;;;;;;;27.80;11.50;;;;;;;14.88;57.51;100970.70;107961;1250;59624;-77
2022/04/16 07:40:56;;;;;;;13.50;9.50;;;;;;;14.91;57.52;100969.55;107837;1250;59464;-78
2022/04/16 07:43:26;;;;;;;29.90;12.50;;;;;;;15.00;56.97;100971.05;107672;1249;71771;-81
2022/04/16 07:45:56;;;;;;;14.70;9.40;;;;;;;14.96;56.67;100972.64;107666;1250;72168;-76
2022/04/16 07:48:25;;;;;;;68.60;15.30;;;;;;;15.11;56.36;100971.30;107991;1248;71055;-77
2022/04/16 07:50:54;;;;;;;13.50;9.20;;;;;;;15.17;56.27;100975.02;107501;1250;72643;-76
2022/04/16 07:53:22;;;;;;;15.80;10.10;;;;;;;15.06;56.37;100974.36;107558;1250;61148;-74
2022/04/16 07:55:51;;;;;;;13.50;10.40;;;;;;;15.15;55.72;100972.20;107557;1249;59031;-77
2022/04/16 07:58:20;;;;;;;16.40;10.70;;;;;;;15.10;55.49;100973.58;108015;1248;70673;-77
2022/04/16 08:00:49;;;;;;;20.30;13.50;;;;;;;15.11;55.83;100978.89;108155;1250;71327;-78
2022/04/16 08:03:17;;;;;;;16.70;11.60;;;;;;;15.15;56.29;100977.66;107836;1248;70960;-74
2022/04/16 08:05:47;;;;;;;19.80;12.00;;;;;;;15.23;56.45;100976.98;107740;1250;75402;-73
2022/04/16 08:08:15;;;;;;;18.80;11.10;;;;;;;15.35;56.78;100981.55;107548;1249;61754;-71
2022/04/16 08:10:46;;;;;;;15.60;11.80;;;;;;;15.49;55.94;100987.49;107300;1250;60046;-71
2022/04/16 08:13:14;;;;;;;14.70;11.40;;;;;;;15.49;55.35;100994.02;107243;1250;73202;-71
2022/04/16 08:15:43;;;;;;;27.20;13.20;;;;;;;15.34;55.96;100986.18;107421;1248;70916;-74
2022/04/16 08:18:14;;;;;;;18.60;13.00;;;;;;;15.30;55.95;100987.27;107503;1247;68731;-71
2022/04/16 08:20:43;;;;;;;17.30;12.50;;;;;;;15.28;56.16;100987.39;107328;1250;73051;-72
2022/04/16 08:23:13;;;;;;;17.20;13.30;;;;;;;15.23;56.69;100981.02;107619;1248;61088;-68
2022/04/16 08:28:10;;;;;;;17.30;13.10;;;;;;;15.14;57.09;100975.81;107247;1247;72431;-70
2022/04/16 08:30:39;;;;;;;17.40;12.80;;;;;;;15.22;56.78;100977.63;107318;1248;72184;-76
2022/04/16 08:33:16;;;;;;;17.50;12.40;;;;;;;15.43;56.54;100976.81;107451;1247;68153;-72
2022/04/16 08:35:46;;;;;;;23.00;14.80;;;;;;;15.50;56.39;100973.40;107218;1248;71538;-71
2022/04/16 08:38:15;;;;;;;25.00;13.90;;;;;;;15.62;56.41;100969.80;107280;1248;61355;-71
2022/04/16 08:40:44;;;;;;;18.70;13.50;;;;;;;15.88;55.76;100975.95;107113;1250;60127;-72
2022/04/16 08:43:14;;;;;;;17.00;12.50;;;;;;;16.01;55.17;100974.77;107210;1247;72113;-71
2022/04/16 08:45:44;;;;;;;16.20;13.10;;;;;;;16.04;54.71;100966.70;107237;1247;71570;-71
2022/04/16 08:48:14;;;;;;;16.40;12.60;;;;;;;16.09;54.78;100967.54;107392;1248;69478;-70
2022/04/16 08:50:44;;;;;;;17.10;12.30;;;;;;;16.10;54.37;100962.29;107387;1250;72387;-71
2022/04/16 08:53:14;;;;;;;20.10;12.70;;;;;;;16.06;54.33;100963.38;107413;1249;59692;-70
2022/04/16 08:55:43;;;;;;;17.90;12.10;;;;;;;16.13;53.96;100967.70;107342;1248;60390;-70
2022/04/16 08:58:13;;;;;;;15.80;12.10;;;;;;;15.83;54.23;100962.98;107169;1251;72124;-70
2022/04/16 09:00:43;;;;;;;20.30;12.90;;;;;;;15.83;54.79;100964.93;107268;1250;71063;-73
2022/04/16 09:03:12;;;;;;;15.70;12.80;;;;;;;16.13;54.04;100959.30;107427;1246;70583;-74
2022/04/16 09:05:41;;;;;;;14.60;11.50;;;;;;;16.28;53.55;100958.27;107462;1248;74370;-72
2022/04/16 09:08:10;;;;;;;19.40;12.80;;;;;;;16.38;52.96;100954.32;107662;1247;60694;-71
2022/04/16 09:10:43;;;;;;;15.90;10.10;;;;;;;16.49;53.04;100953.67;107386;1250;60124;-71
2022/04/16 09:13:12;;;;;;;;;;;;;;;16.69;51.67;100944.02;107615;1248;70012;-69
2022/04/16 09:15:44;;;;;;;16.50;10.30;;;;;;;16.88;50.66;100936.04;107325;1250;69566;-69
2022/04/16 09:18:14;;;;;;;14.70;10.10;;;;;;;16.69;51.05;100939.43;107300;1250;70341;-70
2022/04/16 09:20:43;;;;;;;16.30;10.40;;;;;;;16.75;50.89;100932.02;107479;1250;75107;-70
2022/04/16 09:23:19;;;;;;;13.90;10.40;;;;;;;16.63;51.06;100929.79;107410;1249;60953;-69
2022/04/16 09:25:51;;;;;;;14.20;9.90;;;;;;;16.83;50.92;100925.31;107489;1250;60978;-71
2022/04/16 09:28:22;;;;;;;18.80;10.50;;;;;;;16.96;50.48;100923.52;107329;1251;72126;-72
2022/04/16 09:30:55;;;;;;;13.40;10.20;;;;;;;17.15;50.42;100927.30;107100;1250;73962;-70
2022/04/16 09:33:25;;;;;;;15.40;10.00;;;;;;;17.14;50.30;100926.17;107327;1250;69425;-71
2022/04/16 09:35:58;;;;;;;16.10;9.70;;;;;;;17.29;50.20;100923.63;107335;1250;74650;-70
2022/04/16 09:38:35;;;;;;;14.40;9.70;;;;;;;17.36;49.50;100926.20;107369;1250;60792;-73
2022/04/16 09:41:08;;;;;;;17.60;10.30;;;;;;;17.14;49.80;100923.92;107330;1250;61071;-70
2022/04/16 09:43:38;;;;;;;12.40;8.80;;;;;;;17.06;49.68;100927.02;107370;1250;72294;-72
2022/04/16 09:46:13;;;;;;;13.00;9.00;;;;;;;17.01;49.79;100925.17;107257;1248;73021;-71
2022/04/16 09:48:45;;;;;;;21.30;10.30;;;;;;;16.77;50.39;100922.71;107473;1250;68468;-72
2022/04/16 09:51:17;;;;;;;25.40;10.30;;;;;;;17.08;49.83;100918.15;107084;1250;73769;-72
2022/04/16 09:53:47;;;;;;;11.40;8.20;;;;;;;17.40;48.55;100917.66;107310;1250;61824;-73
2022/04/16 09:56:18;;;;;;;11.90;8.70;;;;;;;17.71;47.44;100919.69;107297;1251;60143;-70
2022/04/16 09:58:52;;;;;;;16.60;9.30;;;;;;;17.80;47.06;100913.16;107402;1250;73566;-74
2022/04/16 10:01:24;;;;;;;12.80;8.00;;;;;;;17.85;47.63;100918.36;107437;1250;73269;-70
2022/04/16 10:03:54;;;;;;;12.80;8.00;;;;;;;17.88;46.84;100921.91;107183;1249;70495;-70
2022/04/16 10:06:24;;;;;;;18.20;9.60;;;;;;;17.90;46.45;100922.10;107344;1250;71671;-69
2022/04/16 10:08:58;;;;;;;13.90;8.40;;;;;;;17.93;46.40;100909.58;107341;1250;60595;-68
2022/04/16 10:15:05;;;;;;;9.30;7.50;;;;;;;17.80;45.18;100917.42;107033;1250;71273;-70
2022/04/16 10:17:46;;;;;;;16.40;8.90;;;;;;;18.04;45.56;100911.87;107368;1249;69631;-72
2022/04/16 10:20:21;;;;;;;11.40;6.80;;;;;;;18.20;45.07;100905.27;107416;1250;68821;-72
2022/04/16 10:23:07;;;;;;;13.80;7.80;;;;;;;18.62;44.44;100912.80;107506;1250;71964;-70
2022/04/16 10:25:45;;;;;;;13.50;9.00;;;;;;;18.35;44.60;100912.76;107282;1250;61156;-70
2022/04/16 10:28:23;;;;;;;12.30;8.50;;;;;;;17.83;45.42;100916.77;107540;1249;60710;-70
2022/04/16 10:30:55;;;;;;;11.60;8.50;;;;;;;17.65;46.20;100917.48;107481;1248;71691;-69
2022/04/16 10:33:27;;;;;;;13.30;9.10;;;;;;;17.71;46.11;100915.48;107305;1250;70394;-71
2022/04/16 10:36:01;;;;;;;10.50;8.50;;;;;;;17.65;46.18;100918.71;107298;1250;68719;-73
2022/04/16 10:38:43;;;;;;;15.10;8.70;;;;;;;17.53;46.83;100923.02;107168;1250;73214;-70
2022/04/16 10:41:19;;;;;;;12.30;8.00;;;;;;;17.42;47.22;100922.68;107446;1250;61745;-69
2022/04/16 10:44:00;;;;;;;14.00;9.00;;;;;;;17.51;47.30;100925.20;107231;1250;60826;-69
2022/04/16 10:46:50;;;;;;;12.70;8.90;;;;;;;17.58;46.74;100918.51;107342;1250;73252;-70
2022/04/16 10:49:23;;;;;;;12.20;8.40;;;;;;;17.63;46.27;100921.05;107277;1249;70139;-72
2022/04/16 10:51:55;;;;;;;11.10;8.20;;;;;;;17.55;46.32;100920.26;107394;1250;66928;-72
2022/04/16 10:54:34;;;;;;;16.00;8.20;;;;;;;17.47;46.44;100916.81;107358;1249;71302;-69
2022/04/16 10:57:08;;;;;;;10.30;8.20;;;;;;;17.42;46.11;100920.13;107410;1249;61189;-73
2022/04/16 10:59:44;;;;;;;17.20;9.30;;;;;;;17.61;46.10;100917.34;107572;1250;60248;-74
2022/04/16 11:02:23;;;;;;;12.80;8.10;;;;;;;17.92;45.86;100918.52;107238;1249;72666;-71
2022/04/16 11:05:05;;;;;;;11.40;6.30;;;;;;;18.12;44.90;100914.77;107446;1250;73182;-75
2022/04/16 11:07:40;;;;;;;16.60;6.70;;;;;;;18.23;44.37;100905.89;107303;1250;68579;-71
2022/04/16 11:10:11;;;;;;;14.30;7.10;;;;;;;18.08;44.52;100913.91;107583;1250;62469;-69
2022/04/16 11:12:41;;;;;;;14.50;7.30;;;;;;;18.04;44.86;100912.20;107356;1250;60169;-69
2022/04/16 11:15:19;;;;;;;11.20;7.10;;;;;;;17.96;44.59;100915.68;107433;1250;60101;-72
2022/04/16 11:17:53;;;;;;;23.90;7.90;;;;;;;17.96;44.56;100903.90;107438;1250;73098;-75
2022/04/16 11:20:23;;;;;;;9.30;7.30;;;;;;;17.97;44.81;100913.27;107197;1251;69335;-73
2022/04/16 11:22:56;;;;;;;12.30;6.80;;;;;;;18.01;44.20;100906.67;107392;1250;70568;-73
2022/04/16 11:34:14;;;;;;;8.70;6.30;;;;;;;18.02;43.79;100915.98;107479;1250;74317;-72
2022/04/16 11:36:39;;;;;;;9.10;5.80;;;;;;;19.07;41.79;100898.92;107477;1250;71577;-70
2022/04/16 11:39:24;;;;;;;9.30;5.60;;;;;;;19.37;41.59;100890.11;107594;1250;60022;-70
2022/04/16 11:41:57;;;;;;;10.50;6.30;;;;;;;19.89;40.59;100894.10;107474;1250;73092;-70
2022/04/16 11:44:44;;;;;;;8.20;5.70;;;;;;;20.11;39.84;100886.52;107499;1250;57373;-73
2022/04/16 11:47:22;;;;;;;8.20;5.40;;;;;;;20.14;38.93;100890.14;107565;1248;60342;-70
2022/04/16 11:49:55;;;;;;;8.80;6.60;;;;;;;20.39;38.54;100851.70;107608;1248;74780;-71
2022/04/16 11:52:32;;;;;;;8.70;6.10;;;;;;;20.54;38.84;100890.50;107235;1248;73283;-73